<?xml version="1.0" encoding="UTF-8" ?>
<gpx version="1.1" xmlns:xsi="http://www.w3.org/2001/XMLSchema-instance" 
    xmlns="http://www.topografix.com/GPX/1/1"
    xsi:schemaLocation="http://www.topografix.com/GPX/1/1 http://www.topografix.com/GPX/1/1/gpx.xsd" 
    creator="Openrunner - https://www.openrunner.com" >	<trk>
	                   <name>La Chapelle sur Coise - Le Bois des Roches-21938099</name>
						<trkseg>
					<trkpt lat="45.654810" lon="4.499970">
						<ele>770</ele>
						<time>2025-07-18T12:55:54Z</time>
					</trkpt>
					<trkpt lat="45.654760" lon="4.499950">
						<ele>770</ele>
						<time>2025-07-18T12:56:01Z</time>
					</trkpt>
					<trkpt lat="45.654620" lon="4.500620">
						<ele>766</ele>
						<time>2025-07-18T12:57:06Z</time>
					</trkpt>
					<trkpt lat="45.654590" lon="4.500710">
						<ele>765</ele>
						<time>2025-07-18T12:57:15Z</time>
					</trkpt>
					<trkpt lat="45.654350" lon="4.501210">
						<ele>760</ele>
						<time>2025-07-18T12:58:12Z</time>
					</trkpt>
					<trkpt lat="45.654270" lon="4.501390">
						<ele>758</ele>
						<time>2025-07-18T12:58:32Z</time>
					</trkpt>
					<trkpt lat="45.654140" lon="4.501750">
						<ele>753</ele>
						<time>2025-07-18T12:59:10Z</time>
					</trkpt>
					<trkpt lat="45.654130" lon="4.501830">
						<ele>752</ele>
						<time>2025-07-18T12:59:17Z</time>
					</trkpt>
					<trkpt lat="45.654160" lon="4.501920">
						<ele>751</ele>
						<time>2025-07-18T12:59:27Z</time>
					</trkpt>
					<trkpt lat="45.654200" lon="4.501990">
						<ele>750</ele>
						<time>2025-07-18T12:59:35Z</time>
					</trkpt>
					<trkpt lat="45.654260" lon="4.502080">
						<ele>749</ele>
						<time>2025-07-18T12:59:47Z</time>
					</trkpt>
					<trkpt lat="45.654460" lon="4.502520">
						<ele>745</ele>
						<time>2025-07-18T13:00:36Z</time>
					</trkpt>
					<trkpt lat="45.654480" lon="4.502590">
						<ele>744</ele>
						<time>2025-07-18T13:00:43Z</time>
					</trkpt>
					<trkpt lat="45.654480" lon="4.502650">
						<ele>743</ele>
						<time>2025-07-18T13:00:48Z</time>
					</trkpt>
					<trkpt lat="45.654580" lon="4.502810">
						<ele>741</ele>
						<time>2025-07-18T13:01:08Z</time>
					</trkpt>
					<trkpt lat="45.654640" lon="4.502930">
						<ele>739</ele>
						<time>2025-07-18T13:01:22Z</time>
					</trkpt>
					<trkpt lat="45.654660" lon="4.503040">
						<ele>737</ele>
						<time>2025-07-18T13:01:33Z</time>
					</trkpt>
					<trkpt lat="45.654670" lon="4.503160">
						<ele>735</ele>
						<time>2025-07-18T13:01:44Z</time>
					</trkpt>
					<trkpt lat="45.654660" lon="4.503260">
						<ele>733</ele>
						<time>2025-07-18T13:01:53Z</time>
					</trkpt>
					<trkpt lat="45.654630" lon="4.503390">
						<ele>731</ele>
						<time>2025-07-18T13:02:06Z</time>
					</trkpt>
					<trkpt lat="45.654570" lon="4.503540">
						<ele>729</ele>
						<time>2025-07-18T13:02:22Z</time>
					</trkpt>
					<trkpt lat="45.654520" lon="4.503610">
						<ele>727</ele>
						<time>2025-07-18T13:02:32Z</time>
					</trkpt>
					<trkpt lat="45.654470" lon="4.503650">
						<ele>727</ele>
						<time>2025-07-18T13:02:39Z</time>
					</trkpt>
					<trkpt lat="45.654380" lon="4.503670">
						<ele>727</ele>
						<time>2025-07-18T13:02:51Z</time>
					</trkpt>
					<trkpt lat="45.654320" lon="4.503660">
						<ele>727</ele>
						<time>2025-07-18T13:02:59Z</time>
					</trkpt>
					<trkpt lat="45.654070" lon="4.503550">
						<ele>727</ele>
						<time>2025-07-18T13:03:34Z</time>
					</trkpt>
					<trkpt lat="45.653980" lon="4.503540">
						<ele>726</ele>
						<time>2025-07-18T13:03:46Z</time>
					</trkpt>
					<trkpt lat="45.653890" lon="4.503570">
						<ele>725</ele>
						<time>2025-07-18T13:03:59Z</time>
					</trkpt>
					<trkpt lat="45.653830" lon="4.503650">
						<ele>724</ele>
						<time>2025-07-18T13:04:10Z</time>
					</trkpt>
					<trkpt lat="45.653780" lon="4.503730">
						<ele>722</ele>
						<time>2025-07-18T13:04:20Z</time>
					</trkpt>
					<trkpt lat="45.653750" lon="4.503870">
						<ele>721</ele>
						<time>2025-07-18T13:04:33Z</time>
					</trkpt>
					<trkpt lat="45.653730" lon="4.504020">
						<ele>719</ele>
						<time>2025-07-18T13:04:48Z</time>
					</trkpt>
					<trkpt lat="45.653670" lon="4.505740">
						<ele>705</ele>
						<time>2025-07-18T13:07:28Z</time>
					</trkpt>
					<trkpt lat="45.653680" lon="4.505850">
						<ele>705</ele>
						<time>2025-07-18T13:07:39Z</time>
					</trkpt>
					<trkpt lat="45.653700" lon="4.505970">
						<ele>704</ele>
						<time>2025-07-18T13:07:50Z</time>
					</trkpt>
					<trkpt lat="45.653720" lon="4.506050">
						<ele>703</ele>
						<time>2025-07-18T13:07:58Z</time>
					</trkpt>
					<trkpt lat="45.653790" lon="4.506190">
						<ele>702</ele>
						<time>2025-07-18T13:08:14Z</time>
					</trkpt>
					<trkpt lat="45.653860" lon="4.506300">
						<ele>701</ele>
						<time>2025-07-18T13:08:28Z</time>
					</trkpt>
					<trkpt lat="45.653740" lon="4.506480">
						<ele>699</ele>
						<time>2025-07-18T13:08:51Z</time>
					</trkpt>
					<trkpt lat="45.653670" lon="4.506590">
						<ele>698</ele>
						<time>2025-07-18T13:09:05Z</time>
					</trkpt>
					<trkpt lat="45.653550" lon="4.506960">
						<ele>693</ele>
						<time>2025-07-18T13:09:43Z</time>
					</trkpt>
					<trkpt lat="45.653460" lon="4.507220">
						<ele>689</ele>
						<time>2025-07-18T13:10:10Z</time>
					</trkpt>
					<trkpt lat="45.653220" lon="4.509450">
						<ele>666</ele>
						<time>2025-07-18T13:13:41Z</time>
					</trkpt>
					<trkpt lat="45.653230" lon="4.509590">
						<ele>666</ele>
						<time>2025-07-18T13:13:54Z</time>
					</trkpt>
					<trkpt lat="45.653200" lon="4.509630">
						<ele>665</ele>
						<time>2025-07-18T13:13:59Z</time>
					</trkpt>
					<trkpt lat="45.653030" lon="4.509900">
						<ele>663</ele>
						<time>2025-07-18T13:14:33Z</time>
					</trkpt>
					<trkpt lat="45.652730" lon="4.510420">
						<ele>661</ele>
						<time>2025-07-18T13:15:36Z</time>
					</trkpt>
					<trkpt lat="45.652530" lon="4.510220">
						<ele>661</ele>
						<time>2025-07-18T13:16:09Z</time>
					</trkpt>
					<trkpt lat="45.652440" lon="4.510030">
						<ele>661</ele>
						<time>2025-07-18T13:16:30Z</time>
					</trkpt>
					<trkpt lat="45.652370" lon="4.509990">
						<ele>662</ele>
						<time>2025-07-18T13:16:40Z</time>
					</trkpt>
					<trkpt lat="45.652300" lon="4.510010">
						<ele>662</ele>
						<time>2025-07-18T13:16:50Z</time>
					</trkpt>
					<trkpt lat="45.652110" lon="4.510200">
						<ele>663</ele>
						<time>2025-07-18T13:17:20Z</time>
					</trkpt>
					<trkpt lat="45.651610" lon="4.510630">
						<ele>663</ele>
						<time>2025-07-18T13:18:38Z</time>
					</trkpt>
					<trkpt lat="45.651410" lon="4.510780">
						<ele>663</ele>
						<time>2025-07-18T13:19:08Z</time>
					</trkpt>
					<trkpt lat="45.651180" lon="4.510850">
						<ele>663</ele>
						<time>2025-07-18T13:19:40Z</time>
					</trkpt>
					<trkpt lat="45.650820" lon="4.510920">
						<ele>664</ele>
						<time>2025-07-18T13:20:28Z</time>
					</trkpt>
					<trkpt lat="45.650630" lon="4.510910">
						<ele>665</ele>
						<time>2025-07-18T13:20:54Z</time>
					</trkpt>
					<trkpt lat="45.650280" lon="4.510830">
						<ele>666</ele>
						<time>2025-07-18T13:21:41Z</time>
					</trkpt>
					<trkpt lat="45.650130" lon="4.510740">
						<ele>668</ele>
						<time>2025-07-18T13:22:03Z</time>
					</trkpt>
					<trkpt lat="45.649870" lon="4.510520">
						<ele>671</ele>
						<time>2025-07-18T13:22:43Z</time>
					</trkpt>
					<trkpt lat="45.649600" lon="4.510210">
						<ele>674</ele>
						<time>2025-07-18T13:23:29Z</time>
					</trkpt>
					<trkpt lat="45.649520" lon="4.510120">
						<ele>675</ele>
						<time>2025-07-18T13:23:43Z</time>
					</trkpt>
					<trkpt lat="45.649310" lon="4.509920">
						<ele>677</ele>
						<time>2025-07-18T13:24:16Z</time>
					</trkpt>
					<trkpt lat="45.649110" lon="4.509770">
						<ele>680</ele>
						<time>2025-07-18T13:24:47Z</time>
					</trkpt>
					<trkpt lat="45.648950" lon="4.509710">
						<ele>683</ele>
						<time>2025-07-18T13:25:09Z</time>
					</trkpt>
					<trkpt lat="45.648490" lon="4.509640">
						<ele>688</ele>
						<time>2025-07-18T13:26:10Z</time>
					</trkpt>
					<trkpt lat="45.648280" lon="4.509670">
						<ele>689</ele>
						<time>2025-07-18T13:26:39Z</time>
					</trkpt>
					<trkpt lat="45.648120" lon="4.509650">
						<ele>689</ele>
						<time>2025-07-18T13:27:00Z</time>
					</trkpt>
					<trkpt lat="45.647830" lon="4.509550">
						<ele>690</ele>
						<time>2025-07-18T13:27:40Z</time>
					</trkpt>
					<trkpt lat="45.647620" lon="4.509450">
						<ele>691</ele>
						<time>2025-07-18T13:28:09Z</time>
					</trkpt>
					<trkpt lat="45.647450" lon="4.509280">
						<ele>693</ele>
						<time>2025-07-18T13:28:37Z</time>
					</trkpt>
					<trkpt lat="45.647320" lon="4.509080">
						<ele>693</ele>
						<time>2025-07-18T13:29:02Z</time>
					</trkpt>
					<trkpt lat="45.647280" lon="4.508940">
						<ele>694</ele>
						<time>2025-07-18T13:29:17Z</time>
					</trkpt>
					<trkpt lat="45.647260" lon="4.508810">
						<ele>694</ele>
						<time>2025-07-18T13:29:29Z</time>
					</trkpt>
					<trkpt lat="45.647220" lon="4.508750">
						<ele>694</ele>
						<time>2025-07-18T13:29:37Z</time>
					</trkpt>
					<trkpt lat="45.647210" lon="4.508740">
						<ele>694</ele>
						<time>2025-07-18T13:29:38Z</time>
					</trkpt>
					<trkpt lat="45.647210" lon="4.508660">
						<ele>694</ele>
						<time>2025-07-18T13:29:46Z</time>
					</trkpt>
					<trkpt lat="45.647060" lon="4.508170">
						<ele>693</ele>
						<time>2025-07-18T13:30:36Z</time>
					</trkpt>
					<trkpt lat="45.646970" lon="4.507910">
						<ele>692</ele>
						<time>2025-07-18T13:31:03Z</time>
					</trkpt>
					<trkpt lat="45.646930" lon="4.507770">
						<ele>692</ele>
						<time>2025-07-18T13:31:17Z</time>
					</trkpt>
					<trkpt lat="45.646920" lon="4.507680">
						<ele>692</ele>
						<time>2025-07-18T13:31:25Z</time>
					</trkpt>
					<trkpt lat="45.646930" lon="4.507570">
						<ele>692</ele>
						<time>2025-07-18T13:31:36Z</time>
					</trkpt>
					<trkpt lat="45.647030" lon="4.506910">
						<ele>695</ele>
						<time>2025-07-18T13:32:39Z</time>
					</trkpt>
					<trkpt lat="45.647030" lon="4.506750">
						<ele>695</ele>
						<time>2025-07-18T13:32:54Z</time>
					</trkpt>
					<trkpt lat="45.647000" lon="4.506580">
						<ele>695</ele>
						<time>2025-07-18T13:33:10Z</time>
					</trkpt>
					<trkpt lat="45.646930" lon="4.506350">
						<ele>695</ele>
						<time>2025-07-18T13:33:33Z</time>
					</trkpt>
					<trkpt lat="45.646850" lon="4.506140">
						<ele>695</ele>
						<time>2025-07-18T13:33:56Z</time>
					</trkpt>
					<trkpt lat="45.646750" lon="4.505940">
						<ele>693</ele>
						<time>2025-07-18T13:34:19Z</time>
					</trkpt>
					<trkpt lat="45.646640" lon="4.505810">
						<ele>692</ele>
						<time>2025-07-18T13:34:38Z</time>
					</trkpt>
					<trkpt lat="45.646310" lon="4.505550">
						<ele>691</ele>
						<time>2025-07-18T13:35:28Z</time>
					</trkpt>
					<trkpt lat="45.645770" lon="4.505210">
						<ele>689</ele>
						<time>2025-07-18T13:36:47Z</time>
					</trkpt>
					<trkpt lat="45.645420" lon="4.504960">
						<ele>692</ele>
						<time>2025-07-18T13:37:39Z</time>
					</trkpt>
					<trkpt lat="45.645360" lon="4.504840">
						<ele>693</ele>
						<time>2025-07-18T13:37:53Z</time>
					</trkpt>
					<trkpt lat="45.645330" lon="4.504750">
						<ele>693</ele>
						<time>2025-07-18T13:38:02Z</time>
					</trkpt>
					<trkpt lat="45.645300" lon="4.504680">
						<ele>694</ele>
						<time>2025-07-18T13:38:10Z</time>
					</trkpt>
					<trkpt lat="45.645350" lon="4.504600">
						<ele>694</ele>
						<time>2025-07-18T13:38:20Z</time>
					</trkpt>
					<trkpt lat="45.645310" lon="4.504370">
						<ele>695</ele>
						<time>2025-07-18T13:38:42Z</time>
					</trkpt>
					<trkpt lat="45.645260" lon="4.503980">
						<ele>696</ele>
						<time>2025-07-18T13:39:19Z</time>
					</trkpt>
					<trkpt lat="45.645180" lon="4.503240">
						<ele>694</ele>
						<time>2025-07-18T13:40:29Z</time>
					</trkpt>
					<trkpt lat="45.644950" lon="4.502370">
						<ele>692</ele>
						<time>2025-07-18T13:41:55Z</time>
					</trkpt>
					<trkpt lat="45.644780" lon="4.502030">
						<ele>692</ele>
						<time>2025-07-18T13:42:34Z</time>
					</trkpt>
					<trkpt lat="45.644750" lon="4.501940">
						<ele>693</ele>
						<time>2025-07-18T13:42:44Z</time>
					</trkpt>
					<trkpt lat="45.644640" lon="4.501330">
						<ele>696</ele>
						<time>2025-07-18T13:43:42Z</time>
					</trkpt>
					<trkpt lat="45.644590" lon="4.501230">
						<ele>696</ele>
						<time>2025-07-18T13:43:54Z</time>
					</trkpt>
					<trkpt lat="45.644360" lon="4.501010">
						<ele>697</ele>
						<time>2025-07-18T13:44:31Z</time>
					</trkpt>
					<trkpt lat="45.644150" lon="4.500680">
						<ele>699</ele>
						<time>2025-07-18T13:45:12Z</time>
					</trkpt>
					<trkpt lat="45.643850" lon="4.500230">
						<ele>700</ele>
						<time>2025-07-18T13:46:11Z</time>
					</trkpt>
					<trkpt lat="45.643760" lon="4.500070">
						<ele>700</ele>
						<time>2025-07-18T13:46:30Z</time>
					</trkpt>
					<trkpt lat="45.643630" lon="4.499720">
						<ele>699</ele>
						<time>2025-07-18T13:47:07Z</time>
					</trkpt>
					<trkpt lat="45.643530" lon="4.499310">
						<ele>697</ele>
						<time>2025-07-18T13:47:47Z</time>
					</trkpt>
					<trkpt lat="45.643180" lon="4.498620">
						<ele>692</ele>
						<time>2025-07-18T13:49:07Z</time>
					</trkpt>
					<trkpt lat="45.642980" lon="4.498050">
						<ele>692</ele>
						<time>2025-07-18T13:50:06Z</time>
					</trkpt>
					<trkpt lat="45.642850" lon="4.497380">
						<ele>692</ele>
						<time>2025-07-18T13:51:11Z</time>
					</trkpt>
					<trkpt lat="45.642800" lon="4.496900">
						<ele>691</ele>
						<time>2025-07-18T13:51:56Z</time>
					</trkpt>
					<trkpt lat="45.642810" lon="4.496640">
						<ele>691</ele>
						<time>2025-07-18T13:52:21Z</time>
					</trkpt>
					<trkpt lat="45.642870" lon="4.495950">
						<ele>687</ele>
						<time>2025-07-18T13:53:25Z</time>
					</trkpt>
					<trkpt lat="45.642880" lon="4.495630">
						<ele>685</ele>
						<time>2025-07-18T13:53:55Z</time>
					</trkpt>
					<trkpt lat="45.642910" lon="4.495250">
						<ele>683</ele>
						<time>2025-07-18T13:54:31Z</time>
					</trkpt>
					<trkpt lat="45.642960" lon="4.495100">
						<ele>683</ele>
						<time>2025-07-18T13:54:47Z</time>
					</trkpt>
					<trkpt lat="45.643100" lon="4.494820">
						<ele>683</ele>
						<time>2025-07-18T13:55:19Z</time>
					</trkpt>
					<trkpt lat="45.643220" lon="4.494670">
						<ele>684</ele>
						<time>2025-07-18T13:55:40Z</time>
					</trkpt>
					<trkpt lat="45.643310" lon="4.494510">
						<ele>685</ele>
						<time>2025-07-18T13:55:59Z</time>
					</trkpt>
					<trkpt lat="45.643300" lon="4.494340">
						<ele>685</ele>
						<time>2025-07-18T13:56:15Z</time>
					</trkpt>
					<trkpt lat="45.643160" lon="4.493980">
						<ele>683</ele>
						<time>2025-07-18T13:56:53Z</time>
					</trkpt>
					<trkpt lat="45.643040" lon="4.493550">
						<ele>683</ele>
						<time>2025-07-18T13:57:37Z</time>
					</trkpt>
					<trkpt lat="45.643000" lon="4.493390">
						<ele>682</ele>
						<time>2025-07-18T13:57:52Z</time>
					</trkpt>
					<trkpt lat="45.643180" lon="4.493480">
						<ele>686</ele>
						<time>2025-07-18T13:58:18Z</time>
					</trkpt>
					<trkpt lat="45.643410" lon="4.493630">
						<ele>689</ele>
						<time>2025-07-18T13:58:52Z</time>
					</trkpt>
					<trkpt lat="45.643700" lon="4.493750">
						<ele>693</ele>
						<time>2025-07-18T13:59:32Z</time>
					</trkpt>
					<trkpt lat="45.643770" lon="4.493690">
						<ele>694</ele>
						<time>2025-07-18T13:59:43Z</time>
					</trkpt>
					<trkpt lat="45.643940" lon="4.493450">
						<ele>699</ele>
						<time>2025-07-18T14:00:15Z</time>
					</trkpt>
					<trkpt lat="45.644120" lon="4.493270">
						<ele>703</ele>
						<time>2025-07-18T14:00:44Z</time>
					</trkpt>
					<trkpt lat="45.644280" lon="4.493060">
						<ele>706</ele>
						<time>2025-07-18T14:01:13Z</time>
					</trkpt>
					<trkpt lat="45.644540" lon="4.493050">
						<ele>710</ele>
						<time>2025-07-18T14:01:48Z</time>
					</trkpt>
					<trkpt lat="45.644740" lon="4.492990">
						<ele>713</ele>
						<time>2025-07-18T14:02:15Z</time>
					</trkpt>
					<trkpt lat="45.644790" lon="4.493150">
						<ele>713</ele>
						<time>2025-07-18T14:02:31Z</time>
					</trkpt>
					<trkpt lat="45.644880" lon="4.493280">
						<ele>714</ele>
						<time>2025-07-18T14:02:48Z</time>
					</trkpt>
					<trkpt lat="45.644970" lon="4.493380">
						<ele>715</ele>
						<time>2025-07-18T14:03:04Z</time>
					</trkpt>
					<trkpt lat="45.645090" lon="4.493470">
						<ele>716</ele>
						<time>2025-07-18T14:03:22Z</time>
					</trkpt>
					<trkpt lat="45.645120" lon="4.493520">
						<ele>717</ele>
						<time>2025-07-18T14:03:28Z</time>
					</trkpt>
					<trkpt lat="45.645230" lon="4.493670">
						<ele>717</ele>
						<time>2025-07-18T14:03:48Z</time>
					</trkpt>
					<trkpt lat="45.645470" lon="4.493960">
						<ele>719</ele>
						<time>2025-07-18T14:04:30Z</time>
					</trkpt>
					<trkpt lat="45.645370" lon="4.493400">
						<ele>721</ele>
						<time>2025-07-18T14:05:24Z</time>
					</trkpt>
					<trkpt lat="45.645340" lon="4.493240">
						<ele>720</ele>
						<time>2025-07-18T14:05:39Z</time>
					</trkpt>
					<trkpt lat="45.645340" lon="4.493050">
						<ele>720</ele>
						<time>2025-07-18T14:05:57Z</time>
					</trkpt>
					<trkpt lat="45.645370" lon="4.492590">
						<ele>720</ele>
						<time>2025-07-18T14:06:40Z</time>
					</trkpt>
					<trkpt lat="45.645700" lon="4.492810">
						<ele>724</ele>
						<time>2025-07-18T14:07:29Z</time>
					</trkpt>
					<trkpt lat="45.645820" lon="4.492870">
						<ele>725</ele>
						<time>2025-07-18T14:07:46Z</time>
					</trkpt>
					<trkpt lat="45.645990" lon="4.492980">
						<ele>729</ele>
						<time>2025-07-18T14:08:11Z</time>
					</trkpt>
					<trkpt lat="45.646170" lon="4.493090">
						<ele>734</ele>
						<time>2025-07-18T14:08:37Z</time>
					</trkpt>
					<trkpt lat="45.646270" lon="4.493160">
						<ele>737</ele>
						<time>2025-07-18T14:08:52Z</time>
					</trkpt>
					<trkpt lat="45.646420" lon="4.492830">
						<ele>737</ele>
						<time>2025-07-18T14:09:28Z</time>
					</trkpt>
					<trkpt lat="45.646760" lon="4.492450">
						<ele>740</ele>
						<time>2025-07-18T14:10:26Z</time>
					</trkpt>
					<trkpt lat="45.647580" lon="4.491770">
						<ele>752</ele>
						<time>2025-07-18T14:12:32Z</time>
					</trkpt>
					<trkpt lat="45.648020" lon="4.491240">
						<ele>759</ele>
						<time>2025-07-18T14:13:49Z</time>
					</trkpt>
					<trkpt lat="45.648140" lon="4.491070">
						<ele>761</ele>
						<time>2025-07-18T14:14:12Z</time>
					</trkpt>
					<trkpt lat="45.648140" lon="4.490930">
						<ele>760</ele>
						<time>2025-07-18T14:14:25Z</time>
					</trkpt>
					<trkpt lat="45.648130" lon="4.490520">
						<ele>759</ele>
						<time>2025-07-18T14:15:03Z</time>
					</trkpt>
					<trkpt lat="45.648130" lon="4.490350">
						<ele>758</ele>
						<time>2025-07-18T14:15:19Z</time>
					</trkpt>
					<trkpt lat="45.648110" lon="4.490110">
						<ele>757</ele>
						<time>2025-07-18T14:15:42Z</time>
					</trkpt>
					<trkpt lat="45.648040" lon="4.489860">
						<ele>755</ele>
						<time>2025-07-18T14:16:07Z</time>
					</trkpt>
					<trkpt lat="45.648670" lon="4.489680">
						<ele>766</ele>
						<time>2025-07-18T14:17:32Z</time>
					</trkpt>
					<trkpt lat="45.649080" lon="4.489530">
						<ele>771</ele>
						<time>2025-07-18T14:18:29Z</time>
					</trkpt>
					<trkpt lat="45.649460" lon="4.489550">
						<ele>770</ele>
						<time>2025-07-18T14:19:20Z</time>
					</trkpt>
					<trkpt lat="45.649310" lon="4.489510">
						<ele>771</ele>
						<time>2025-07-18T14:19:40Z</time>
					</trkpt>
					<trkpt lat="45.648900" lon="4.489530">
						<ele>769</ele>
						<time>2025-07-18T14:20:35Z</time>
					</trkpt>
					<trkpt lat="45.648060" lon="4.489920">
						<ele>756</ele>
						<time>2025-07-18T14:22:33Z</time>
					</trkpt>
					<trkpt lat="45.648110" lon="4.490110">
						<ele>757</ele>
						<time>2025-07-18T14:22:51Z</time>
					</trkpt>
					<trkpt lat="45.648130" lon="4.490350">
						<ele>758</ele>
						<time>2025-07-18T14:23:14Z</time>
					</trkpt>
					<trkpt lat="45.648130" lon="4.490520">
						<ele>759</ele>
						<time>2025-07-18T14:23:30Z</time>
					</trkpt>
					<trkpt lat="45.648140" lon="4.490860">
						<ele>760</ele>
						<time>2025-07-18T14:24:02Z</time>
					</trkpt>
					<trkpt lat="45.648140" lon="4.491070">
						<ele>761</ele>
						<time>2025-07-18T14:24:21Z</time>
					</trkpt>
					<trkpt lat="45.648020" lon="4.491240">
						<ele>759</ele>
						<time>2025-07-18T14:24:44Z</time>
					</trkpt>
					<trkpt lat="45.647790" lon="4.491510">
						<ele>754</ele>
						<time>2025-07-18T14:25:23Z</time>
					</trkpt>
					<trkpt lat="45.647580" lon="4.491770">
						<ele>752</ele>
						<time>2025-07-18T14:26:01Z</time>
					</trkpt>
					<trkpt lat="45.646760" lon="4.492450">
						<ele>740</ele>
						<time>2025-07-18T14:28:07Z</time>
					</trkpt>
					<trkpt lat="45.646720" lon="4.492500">
						<ele>739</ele>
						<time>2025-07-18T14:28:14Z</time>
					</trkpt>
					<trkpt lat="45.646420" lon="4.492830">
						<ele>737</ele>
						<time>2025-07-18T14:29:05Z</time>
					</trkpt>
					<trkpt lat="45.646270" lon="4.493160">
						<ele>737</ele>
						<time>2025-07-18T14:29:41Z</time>
					</trkpt>
					<trkpt lat="45.646280" lon="4.493160">
						<ele>737</ele>
						<time>2025-07-18T14:29:43Z</time>
					</trkpt>
					<trkpt lat="45.646270" lon="4.493160">
						<ele>737</ele>
						<time>2025-07-18T14:29:44Z</time>
					</trkpt>
					<trkpt lat="45.646170" lon="4.493090">
						<ele>734</ele>
						<time>2025-07-18T14:29:59Z</time>
					</trkpt>
					<trkpt lat="45.645990" lon="4.492980">
						<ele>729</ele>
						<time>2025-07-18T14:30:25Z</time>
					</trkpt>
					<trkpt lat="45.645820" lon="4.492870">
						<ele>725</ele>
						<time>2025-07-18T14:30:50Z</time>
					</trkpt>
					<trkpt lat="45.645700" lon="4.492810">
						<ele>724</ele>
						<time>2025-07-18T14:31:07Z</time>
					</trkpt>
					<trkpt lat="45.645400" lon="4.492610">
						<ele>720</ele>
						<time>2025-07-18T14:31:51Z</time>
					</trkpt>
					<trkpt lat="45.645370" lon="4.492590">
						<ele>720</ele>
						<time>2025-07-18T14:31:55Z</time>
					</trkpt>
					<trkpt lat="45.645340" lon="4.493050">
						<ele>720</ele>
						<time>2025-07-18T14:32:38Z</time>
					</trkpt>
					<trkpt lat="45.645340" lon="4.493240">
						<ele>720</ele>
						<time>2025-07-18T14:32:56Z</time>
					</trkpt>
					<trkpt lat="45.645450" lon="4.493850">
						<ele>720</ele>
						<time>2025-07-18T14:33:55Z</time>
					</trkpt>
					<trkpt lat="45.645470" lon="4.493960">
						<ele>719</ele>
						<time>2025-07-18T14:34:06Z</time>
					</trkpt>
					<trkpt lat="45.645230" lon="4.493670">
						<ele>717</ele>
						<time>2025-07-18T14:34:48Z</time>
					</trkpt>
					<trkpt lat="45.645120" lon="4.493520">
						<ele>717</ele>
						<time>2025-07-18T14:35:08Z</time>
					</trkpt>
					<trkpt lat="45.645090" lon="4.493470">
						<ele>716</ele>
						<time>2025-07-18T14:35:14Z</time>
					</trkpt>
					<trkpt lat="45.644970" lon="4.493380">
						<ele>715</ele>
						<time>2025-07-18T14:35:32Z</time>
					</trkpt>
					<trkpt lat="45.644930" lon="4.493340">
						<ele>715</ele>
						<time>2025-07-18T14:35:39Z</time>
					</trkpt>
					<trkpt lat="45.644880" lon="4.493280">
						<ele>714</ele>
						<time>2025-07-18T14:35:47Z</time>
					</trkpt>
					<trkpt lat="45.644790" lon="4.493150">
						<ele>713</ele>
						<time>2025-07-18T14:36:04Z</time>
					</trkpt>
					<trkpt lat="45.644740" lon="4.492990">
						<ele>713</ele>
						<time>2025-07-18T14:36:21Z</time>
					</trkpt>
					<trkpt lat="45.644540" lon="4.493050">
						<ele>710</ele>
						<time>2025-07-18T14:36:48Z</time>
					</trkpt>
					<trkpt lat="45.644330" lon="4.493060">
						<ele>707</ele>
						<time>2025-07-18T14:37:16Z</time>
					</trkpt>
					<trkpt lat="45.644280" lon="4.493060">
						<ele>706</ele>
						<time>2025-07-18T14:37:23Z</time>
					</trkpt>
					<trkpt lat="45.644120" lon="4.493270">
						<ele>703</ele>
						<time>2025-07-18T14:37:52Z</time>
					</trkpt>
					<trkpt lat="45.643940" lon="4.493450">
						<ele>699</ele>
						<time>2025-07-18T14:38:21Z</time>
					</trkpt>
					<trkpt lat="45.643860" lon="4.493570">
						<ele>697</ele>
						<time>2025-07-18T14:38:36Z</time>
					</trkpt>
					<trkpt lat="45.643770" lon="4.493690">
						<ele>694</ele>
						<time>2025-07-18T14:38:53Z</time>
					</trkpt>
					<trkpt lat="45.643700" lon="4.493750">
						<ele>693</ele>
						<time>2025-07-18T14:39:04Z</time>
					</trkpt>
					<trkpt lat="45.643410" lon="4.493630">
						<ele>689</ele>
						<time>2025-07-18T14:39:44Z</time>
					</trkpt>
					<trkpt lat="45.643270" lon="4.493540">
						<ele>687</ele>
						<time>2025-07-18T14:40:04Z</time>
					</trkpt>
					<trkpt lat="45.643180" lon="4.493480">
						<ele>686</ele>
						<time>2025-07-18T14:40:18Z</time>
					</trkpt>
					<trkpt lat="45.643000" lon="4.493390">
						<ele>682</ele>
						<time>2025-07-18T14:40:43Z</time>
					</trkpt>
					<trkpt lat="45.642900" lon="4.493080">
						<ele>681</ele>
						<time>2025-07-18T14:41:15Z</time>
					</trkpt>
					<trkpt lat="45.642780" lon="4.492600">
						<ele>678</ele>
						<time>2025-07-18T14:42:03Z</time>
					</trkpt>
					<trkpt lat="45.642640" lon="4.492030">
						<ele>675</ele>
						<time>2025-07-18T14:42:59Z</time>
					</trkpt>
					<trkpt lat="45.642470" lon="4.491080">
						<ele>669</ele>
						<time>2025-07-18T14:44:30Z</time>
					</trkpt>
					<trkpt lat="45.642440" lon="4.490870">
						<ele>667</ele>
						<time>2025-07-18T14:44:50Z</time>
					</trkpt>
					<trkpt lat="45.642450" lon="4.490710">
						<ele>667</ele>
						<time>2025-07-18T14:45:05Z</time>
					</trkpt>
					<trkpt lat="45.642430" lon="4.490520">
						<ele>667</ele>
						<time>2025-07-18T14:45:23Z</time>
					</trkpt>
					<trkpt lat="45.642450" lon="4.490130">
						<ele>667</ele>
						<time>2025-07-18T14:46:00Z</time>
					</trkpt>
					<trkpt lat="45.642450" lon="4.489950">
						<ele>667</ele>
						<time>2025-07-18T14:46:17Z</time>
					</trkpt>
					<trkpt lat="45.642410" lon="4.489450">
						<ele>665</ele>
						<time>2025-07-18T14:47:04Z</time>
					</trkpt>
					<trkpt lat="45.642320" lon="4.488640">
						<ele>662</ele>
						<time>2025-07-18T14:48:20Z</time>
					</trkpt>
					<trkpt lat="45.642130" lon="4.487650">
						<ele>658</ele>
						<time>2025-07-18T14:49:56Z</time>
					</trkpt>
					<trkpt lat="45.642060" lon="4.486670">
						<ele>657</ele>
						<time>2025-07-18T14:51:28Z</time>
					</trkpt>
					<trkpt lat="45.642020" lon="4.486580">
						<ele>657</ele>
						<time>2025-07-18T14:51:38Z</time>
					</trkpt>
					<trkpt lat="45.641970" lon="4.486450">
						<ele>657</ele>
						<time>2025-07-18T14:51:52Z</time>
					</trkpt>
					<trkpt lat="45.641950" lon="4.486100">
						<ele>656</ele>
						<time>2025-07-18T14:52:24Z</time>
					</trkpt>
					<trkpt lat="45.641930" lon="4.484910">
						<ele>649</ele>
						<time>2025-07-18T14:54:15Z</time>
					</trkpt>
					<trkpt lat="45.641960" lon="4.484480">
						<ele>646</ele>
						<time>2025-07-18T14:54:56Z</time>
					</trkpt>
					<trkpt lat="45.642030" lon="4.483690">
						<ele>640</ele>
						<time>2025-07-18T14:56:10Z</time>
					</trkpt>
					<trkpt lat="45.641750" lon="4.483030">
						<ele>635</ele>
						<time>2025-07-18T14:57:22Z</time>
					</trkpt>
					<trkpt lat="45.641610" lon="4.482880">
						<ele>634</ele>
						<time>2025-07-18T14:57:45Z</time>
					</trkpt>
					<trkpt lat="45.641550" lon="4.482750">
						<ele>633</ele>
						<time>2025-07-18T14:58:00Z</time>
					</trkpt>
					<trkpt lat="45.641400" lon="4.481930">
						<ele>626</ele>
						<time>2025-07-18T14:59:19Z</time>
					</trkpt>
					<trkpt lat="45.641310" lon="4.481600">
						<ele>624</ele>
						<time>2025-07-18T14:59:52Z</time>
					</trkpt>
					<trkpt lat="45.641110" lon="4.481340">
						<ele>622</ele>
						<time>2025-07-18T15:00:28Z</time>
					</trkpt>
					<trkpt lat="45.640850" lon="4.480900">
						<ele>617</ele>
						<time>2025-07-18T15:01:22Z</time>
					</trkpt>
					<trkpt lat="45.640780" lon="4.480550">
						<ele>615</ele>
						<time>2025-07-18T15:01:56Z</time>
					</trkpt>
					<trkpt lat="45.640630" lon="4.480180">
						<ele>615</ele>
						<time>2025-07-18T15:02:36Z</time>
					</trkpt>
					<trkpt lat="45.640560" lon="4.479970">
						<ele>615</ele>
						<time>2025-07-18T15:02:57Z</time>
					</trkpt>
					<trkpt lat="45.640590" lon="4.479500">
						<ele>613</ele>
						<time>2025-07-18T15:03:41Z</time>
					</trkpt>
					<trkpt lat="45.640570" lon="4.479190">
						<ele>612</ele>
						<time>2025-07-18T15:04:11Z</time>
					</trkpt>
					<trkpt lat="45.640430" lon="4.478440">
						<ele>612</ele>
						<time>2025-07-18T15:05:23Z</time>
					</trkpt>
					<trkpt lat="45.640300" lon="4.477770">
						<ele>612</ele>
						<time>2025-07-18T15:06:28Z</time>
					</trkpt>
					<trkpt lat="45.640240" lon="4.477540">
						<ele>612</ele>
						<time>2025-07-18T15:06:51Z</time>
					</trkpt>
					<trkpt lat="45.640110" lon="4.477290">
						<ele>612</ele>
						<time>2025-07-18T15:07:20Z</time>
					</trkpt>
					<trkpt lat="45.639880" lon="4.476970">
						<ele>611</ele>
						<time>2025-07-18T15:08:03Z</time>
					</trkpt>
					<trkpt lat="45.639900" lon="4.476560">
						<ele>610</ele>
						<time>2025-07-18T15:08:41Z</time>
					</trkpt>
					<trkpt lat="45.639900" lon="4.476530">
						<ele>610</ele>
						<time>2025-07-18T15:08:44Z</time>
					</trkpt>
					<trkpt lat="45.640090" lon="4.476410">
						<ele>612</ele>
						<time>2025-07-18T15:09:11Z</time>
					</trkpt>
					<trkpt lat="45.641050" lon="4.475950">
						<ele>621</ele>
						<time>2025-07-18T15:11:27Z</time>
					</trkpt>
					<trkpt lat="45.641730" lon="4.475650">
						<ele>626</ele>
						<time>2025-07-18T15:13:02Z</time>
					</trkpt>
					<trkpt lat="45.641960" lon="4.475570">
						<ele>628</ele>
						<time>2025-07-18T15:13:33Z</time>
					</trkpt>
					<trkpt lat="45.642370" lon="4.475460">
						<ele>632</ele>
						<time>2025-07-18T15:14:29Z</time>
					</trkpt>
					<trkpt lat="45.642560" lon="4.475390">
						<ele>634</ele>
						<time>2025-07-18T15:14:55Z</time>
					</trkpt>
					<trkpt lat="45.642830" lon="4.475380">
						<ele>636</ele>
						<time>2025-07-18T15:15:31Z</time>
					</trkpt>
					<trkpt lat="45.643140" lon="4.475330">
						<ele>638</ele>
						<time>2025-07-18T15:16:13Z</time>
					</trkpt>
					<trkpt lat="45.643250" lon="4.475330">
						<ele>639</ele>
						<time>2025-07-18T15:16:27Z</time>
					</trkpt>
					<trkpt lat="45.643480" lon="4.475370">
						<ele>640</ele>
						<time>2025-07-18T15:16:58Z</time>
					</trkpt>
					<trkpt lat="45.643490" lon="4.475380">
						<ele>641</ele>
						<time>2025-07-18T15:17:00Z</time>
					</trkpt>
					<trkpt lat="45.643630" lon="4.475450">
						<ele>641</ele>
						<time>2025-07-18T15:17:20Z</time>
					</trkpt>
					<trkpt lat="45.643880" lon="4.475610">
						<ele>643</ele>
						<time>2025-07-18T15:17:56Z</time>
					</trkpt>
					<trkpt lat="45.644160" lon="4.475830">
						<ele>645</ele>
						<time>2025-07-18T15:18:39Z</time>
					</trkpt>
					<trkpt lat="45.644390" lon="4.475930">
						<ele>646</ele>
						<time>2025-07-18T15:19:11Z</time>
					</trkpt>
					<trkpt lat="45.644530" lon="4.475960">
						<ele>647</ele>
						<time>2025-07-18T15:19:30Z</time>
					</trkpt>
					<trkpt lat="45.644850" lon="4.476050">
						<ele>649</ele>
						<time>2025-07-18T15:20:13Z</time>
					</trkpt>
					<trkpt lat="45.644960" lon="4.476100">
						<ele>650</ele>
						<time>2025-07-18T15:20:29Z</time>
					</trkpt>
					<trkpt lat="45.645040" lon="4.476120">
						<ele>651</ele>
						<time>2025-07-18T15:20:40Z</time>
					</trkpt>
					<trkpt lat="45.645190" lon="4.476230">
						<ele>653</ele>
						<time>2025-07-18T15:21:02Z</time>
					</trkpt>
					<trkpt lat="45.645360" lon="4.476460">
						<ele>656</ele>
						<time>2025-07-18T15:21:33Z</time>
					</trkpt>
					<trkpt lat="45.645490" lon="4.476680">
						<ele>658</ele>
						<time>2025-07-18T15:22:00Z</time>
					</trkpt>
					<trkpt lat="45.645700" lon="4.477120">
						<ele>658</ele>
						<time>2025-07-18T15:22:50Z</time>
					</trkpt>
					<trkpt lat="45.645870" lon="4.477330">
						<ele>659</ele>
						<time>2025-07-18T15:23:20Z</time>
					</trkpt>
					<trkpt lat="45.646060" lon="4.477530">
						<ele>661</ele>
						<time>2025-07-18T15:23:51Z</time>
					</trkpt>
					<trkpt lat="45.646390" lon="4.477940">
						<ele>661</ele>
						<time>2025-07-18T15:24:50Z</time>
					</trkpt>
					<trkpt lat="45.646560" lon="4.478110">
						<ele>659</ele>
						<time>2025-07-18T15:25:17Z</time>
					</trkpt>
					<trkpt lat="45.646650" lon="4.478170">
						<ele>659</ele>
						<time>2025-07-18T15:25:31Z</time>
					</trkpt>
					<trkpt lat="45.646820" lon="4.478210">
						<ele>659</ele>
						<time>2025-07-18T15:25:54Z</time>
					</trkpt>
					<trkpt lat="45.647080" lon="4.478250">
						<ele>659</ele>
						<time>2025-07-18T15:26:28Z</time>
					</trkpt>
					<trkpt lat="45.647430" lon="4.478350">
						<ele>660</ele>
						<time>2025-07-18T15:27:16Z</time>
					</trkpt>
					<trkpt lat="45.648070" lon="4.478460">
						<ele>667</ele>
						<time>2025-07-18T15:28:42Z</time>
					</trkpt>
					<trkpt lat="45.648410" lon="4.478550">
						<ele>669</ele>
						<time>2025-07-18T15:29:28Z</time>
					</trkpt>
					<trkpt lat="45.648890" lon="4.478670">
						<ele>667</ele>
						<time>2025-07-18T15:30:33Z</time>
					</trkpt>
					<trkpt lat="45.648950" lon="4.478710">
						<ele>667</ele>
						<time>2025-07-18T15:30:42Z</time>
					</trkpt>
					<trkpt lat="45.648890" lon="4.478670">
						<ele>667</ele>
						<time>2025-07-18T15:30:51Z</time>
					</trkpt>
					<trkpt lat="45.649840" lon="4.477810">
						<ele>657</ele>
						<time>2025-07-18T15:33:21Z</time>
					</trkpt>
					<trkpt lat="45.649830" lon="4.477760">
						<ele>657</ele>
						<time>2025-07-18T15:33:26Z</time>
					</trkpt>
					<trkpt lat="45.649840" lon="4.477810">
						<ele>657</ele>
						<time>2025-07-18T15:33:31Z</time>
					</trkpt>
					<trkpt lat="45.650000" lon="4.478080">
						<ele>655</ele>
						<time>2025-07-18T15:34:04Z</time>
					</trkpt>
					<trkpt lat="45.650120" lon="4.478320">
						<ele>654</ele>
						<time>2025-07-18T15:34:31Z</time>
					</trkpt>
					<trkpt lat="45.650370" lon="4.478690">
						<ele>653</ele>
						<time>2025-07-18T15:35:19Z</time>
					</trkpt>
					<trkpt lat="45.650540" lon="4.479090">
						<ele>652</ele>
						<time>2025-07-18T15:36:03Z</time>
					</trkpt>
					<trkpt lat="45.650640" lon="4.479410">
						<ele>654</ele>
						<time>2025-07-18T15:36:36Z</time>
					</trkpt>
					<trkpt lat="45.650770" lon="4.479780">
						<ele>658</ele>
						<time>2025-07-18T15:37:14Z</time>
					</trkpt>
					<trkpt lat="45.650880" lon="4.479950">
						<ele>660</ele>
						<time>2025-07-18T15:37:36Z</time>
					</trkpt>
					<trkpt lat="45.651040" lon="4.480210">
						<ele>662</ele>
						<time>2025-07-18T15:38:08Z</time>
					</trkpt>
					<trkpt lat="45.651320" lon="4.480480">
						<ele>663</ele>
						<time>2025-07-18T15:38:53Z</time>
					</trkpt>
					<trkpt lat="45.651660" lon="4.480480">
						<ele>662</ele>
						<time>2025-07-18T15:39:39Z</time>
					</trkpt>
					<trkpt lat="45.652010" lon="4.480950">
						<ele>670</ele>
						<time>2025-07-18T15:40:43Z</time>
					</trkpt>
					<trkpt lat="45.652060" lon="4.481090">
						<ele>672</ele>
						<time>2025-07-18T15:40:57Z</time>
					</trkpt>
					<trkpt lat="45.652090" lon="4.481180">
						<ele>673</ele>
						<time>2025-07-18T15:41:07Z</time>
					</trkpt>
					<trkpt lat="45.652200" lon="4.481640">
						<ele>679</ele>
						<time>2025-07-18T15:41:52Z</time>
					</trkpt>
					<trkpt lat="45.652200" lon="4.482090">
						<ele>683</ele>
						<time>2025-07-18T15:42:34Z</time>
					</trkpt>
					<trkpt lat="45.652340" lon="4.482710">
						<ele>689</ele>
						<time>2025-07-18T15:43:35Z</time>
					</trkpt>
					<trkpt lat="45.652420" lon="4.483010">
						<ele>692</ele>
						<time>2025-07-18T15:44:05Z</time>
					</trkpt>
					<trkpt lat="45.652500" lon="4.483500">
						<ele>695</ele>
						<time>2025-07-18T15:44:52Z</time>
					</trkpt>
					<trkpt lat="45.652570" lon="4.483740">
						<ele>696</ele>
						<time>2025-07-18T15:45:16Z</time>
					</trkpt>
					<trkpt lat="45.652600" lon="4.484820">
						<ele>702</ele>
						<time>2025-07-18T15:46:57Z</time>
					</trkpt>
					<trkpt lat="45.652650" lon="4.485280">
						<ele>703</ele>
						<time>2025-07-18T15:47:40Z</time>
					</trkpt>
					<trkpt lat="45.652770" lon="4.485780">
						<ele>704</ele>
						<time>2025-07-18T15:48:29Z</time>
					</trkpt>
					<trkpt lat="45.653050" lon="4.486370">
						<ele>706</ele>
						<time>2025-07-18T15:49:36Z</time>
					</trkpt>
					<trkpt lat="45.653160" lon="4.487120">
						<ele>708</ele>
						<time>2025-07-18T15:50:47Z</time>
					</trkpt>
					<trkpt lat="45.653480" lon="4.488000">
						<ele>707</ele>
						<time>2025-07-18T15:52:20Z</time>
					</trkpt>
					<trkpt lat="45.653580" lon="4.488390">
						<ele>706</ele>
						<time>2025-07-18T15:52:59Z</time>
					</trkpt>
					<trkpt lat="45.653800" lon="4.488940">
						<ele>707</ele>
						<time>2025-07-18T15:53:58Z</time>
					</trkpt>
					<trkpt lat="45.654020" lon="4.489500">
						<ele>709</ele>
						<time>2025-07-18T15:54:58Z</time>
					</trkpt>
					<trkpt lat="45.654240" lon="4.489970">
						<ele>712</ele>
						<time>2025-07-18T15:55:51Z</time>
					</trkpt>
					<trkpt lat="45.654410" lon="4.490350">
						<ele>713</ele>
						<time>2025-07-18T15:56:33Z</time>
					</trkpt>
					<trkpt lat="45.654610" lon="4.490780">
						<ele>713</ele>
						<time>2025-07-18T15:57:21Z</time>
					</trkpt>
					<trkpt lat="45.654720" lon="4.491150">
						<ele>713</ele>
						<time>2025-07-18T15:57:58Z</time>
					</trkpt>
					<trkpt lat="45.654790" lon="4.491530">
						<ele>713</ele>
						<time>2025-07-18T15:58:35Z</time>
					</trkpt>
					<trkpt lat="45.654830" lon="4.491870">
						<ele>713</ele>
						<time>2025-07-18T15:59:07Z</time>
					</trkpt>
					<trkpt lat="45.654830" lon="4.492220">
						<ele>713</ele>
						<time>2025-07-18T15:59:40Z</time>
					</trkpt>
					<trkpt lat="45.654830" lon="4.492670">
						<ele>714</ele>
						<time>2025-07-18T16:00:22Z</time>
					</trkpt>
					<trkpt lat="45.654800" lon="4.492900">
						<ele>715</ele>
						<time>2025-07-18T16:00:44Z</time>
					</trkpt>
					<trkpt lat="45.654810" lon="4.492970">
						<ele>716</ele>
						<time>2025-07-18T16:00:50Z</time>
					</trkpt>
					<trkpt lat="45.655080" lon="4.493390">
						<ele>718</ele>
						<time>2025-07-18T16:01:43Z</time>
					</trkpt>
					<trkpt lat="45.655290" lon="4.493690">
						<ele>720</ele>
						<time>2025-07-18T16:02:23Z</time>
					</trkpt>
					<trkpt lat="45.655810" lon="4.494010">
						<ele>720</ele>
						<time>2025-07-18T16:03:39Z</time>
					</trkpt>
					<trkpt lat="45.655830" lon="4.494030">
						<ele>720</ele>
						<time>2025-07-18T16:03:42Z</time>
					</trkpt>
					<trkpt lat="45.655870" lon="4.494120">
						<ele>720</ele>
						<time>2025-07-18T16:03:52Z</time>
					</trkpt>
					<trkpt lat="45.655780" lon="4.494490">
						<ele>724</ele>
						<time>2025-07-18T16:04:28Z</time>
					</trkpt>
					<trkpt lat="45.655710" lon="4.494730">
						<ele>727</ele>
						<time>2025-07-18T16:04:53Z</time>
					</trkpt>
					<trkpt lat="45.655510" lon="4.495230">
						<ele>734</ele>
						<time>2025-07-18T16:05:46Z</time>
					</trkpt>
					<trkpt lat="45.655420" lon="4.495520">
						<ele>737</ele>
						<time>2025-07-18T16:06:16Z</time>
					</trkpt>
					<trkpt lat="45.655300" lon="4.496030">
						<ele>744</ele>
						<time>2025-07-18T16:07:06Z</time>
					</trkpt>
					<trkpt lat="45.655120" lon="4.496790">
						<ele>754</ele>
						<time>2025-07-18T16:08:21Z</time>
					</trkpt>
					<trkpt lat="45.655020" lon="4.497260">
						<ele>759</ele>
						<time>2025-07-18T16:09:07Z</time>
					</trkpt>
					<trkpt lat="45.655000" lon="4.497500">
						<ele>762</ele>
						<time>2025-07-18T16:09:29Z</time>
					</trkpt>
					<trkpt lat="45.655030" lon="4.497810">
						<ele>765</ele>
						<time>2025-07-18T16:09:58Z</time>
					</trkpt>
					<trkpt lat="45.654990" lon="4.497980">
						<ele>767</ele>
						<time>2025-07-18T16:10:15Z</time>
					</trkpt>
					<trkpt lat="45.654890" lon="4.498350">
						<ele>771</ele>
						<time>2025-07-18T16:10:52Z</time>
					</trkpt>
					<trkpt lat="45.654830" lon="4.498530">
						<ele>771</ele>
						<time>2025-07-18T16:11:11Z</time>
					</trkpt>
					<trkpt lat="45.654670" lon="4.498880">
						<ele>772</ele>
						<time>2025-07-18T16:11:50Z</time>
					</trkpt>
					<trkpt lat="45.654660" lon="4.499040">
						<ele>772</ele>
						<time>2025-07-18T16:12:05Z</time>
					</trkpt>
					<trkpt lat="45.654680" lon="4.499220">
						<ele>773</ele>
						<time>2025-07-18T16:12:22Z</time>
					</trkpt>
					<trkpt lat="45.654700" lon="4.499900">
						<ele>770</ele>
						<time>2025-07-18T16:13:25Z</time>
					</trkpt>
					<trkpt lat="45.654760" lon="4.499950">
						<ele>770</ele>
						<time>2025-07-18T16:13:35Z</time>
					</trkpt>
					<trkpt lat="45.654810" lon="4.499970">
						<ele>770</ele>
						<time>2025-07-18T16:13:42Z</time>
					</trkpt>
					<trkpt lat="45.654990" lon="4.500060">
						<ele>770</ele>
						<time>2025-07-18T16:14:07Z</time>
					</trkpt>
					<trkpt lat="45.655070" lon="4.499360">
						<ele>771</ele>
						<time>2025-07-18T16:15:13Z</time>
					</trkpt>
					<trkpt lat="45.654850" lon="4.499270">
						<ele>772</ele>
						<time>2025-07-18T16:15:44Z</time>
					</trkpt>
					<trkpt lat="45.654860" lon="4.499140">
						<ele>772</ele>
						<time>2025-07-18T16:15:56Z</time>
					</trkpt>
					<trkpt lat="45.654850" lon="4.499270">
						<ele>772</ele>
						<time>2025-07-18T16:16:08Z</time>
					</trkpt>
					<trkpt lat="45.655070" lon="4.499360">
						<ele>771</ele>
						<time>2025-07-18T16:16:39Z</time>
					</trkpt>
					<trkpt lat="45.654990" lon="4.500060">
						<ele>770</ele>
						<time>2025-07-18T16:17:45Z</time>
					</trkpt>
					<trkpt lat="45.654810" lon="4.499970">
						<ele>770</ele>
						<time>2025-07-18T16:18:10Z</time>
					</trkpt>
					</trkseg>
				</trk>
			</gpx>